createdAt,value
2023-04-01T00:02:02.751Z,39.02
2023-04-01T00:07:24.631Z,38.60
2023-04-01T00:12:52.695Z,38.79
2023-04-01T00:18:15.039Z,38.75
2023-04-01T00:23:37.442Z,38.74
2023-04-01T00:29:00.225Z,38.76
2023-04-01T00:34:22.385Z,38.89
2023-04-01T00:39:44.190Z,38.57
2023-04-01T00:45:45.839Z,38.70
2023-04-01T00:51:11.175Z,38.59
2023-04-01T00:56:39.478Z,38.99
2023-04-01T01:02:03.398Z,38.91
2023-04-01T01:07:52.646Z,38.86
2023-04-01T01:13:27.398Z,38.79
2023-04-01T01:19:07.485Z,38.96
2023-04-01T01:24:50.786Z,38.97
2023-04-01T01:30:37.242Z,39.19
2023-04-01T01:36:03.335Z,39.28
2023-04-01T01:41:27.910Z,39.03
2023-04-01T01:46:51.168Z,39.31
2023-04-01T01:52:14.322Z,39.29
2023-04-01T01:57:40.518Z,39.12
2023-04-01T02:03:02.705Z,39.39
2023-04-01T02:09:04.709Z,39.38
2023-04-01T02:14:32.367Z,38.94
2023-04-01T02:20:28.965Z,38.98
2023-04-01T02:25:52.270Z,39.42
2023-04-01T02:31:16.237Z,39.27
2023-04-01T02:36:39.313Z,39.44
2023-04-01T02:42:01.570Z,39.50
2023-04-01T02:47:23.394Z,39.25
2023-04-01T02:52:45.238Z,39.49
2023-04-01T02:58:07.383Z,39.56
2023-04-01T03:03:29.181Z,39.39
2023-04-01T03:08:51.280Z,39.13
2023-04-01T03:14:13.381Z,39.26
2023-04-01T03:19:35.393Z,39.16
2023-04-01T03:24:57.131Z,39.52
2023-04-01T03:30:19.094Z,39.46
2023-04-01T03:35:41.114Z,39.17
2023-04-01T03:41:03.074Z,39.23
2023-04-01T03:46:24.974Z,39.65
2023-04-01T03:51:46.868Z,39.51
2023-04-01T03:57:08.724Z,39.43
2023-04-01T04:02:30.730Z,39.29
2023-04-01T04:07:53.547Z,39.28
2023-04-01T04:13:15.789Z,39.47
2023-04-01T04:18:38.347Z,39.39
2023-04-01T04:24:01.585Z,39.69
2023-04-01T04:29:24.320Z,39.36
2023-04-01T04:34:46.109Z,39.54
2023-04-01T04:40:08.896Z,39.69
2023-04-01T04:45:31.642Z,39.60
2023-04-01T04:50:53.704Z,39.65
2023-04-01T04:56:20.668Z,39.61
2023-04-01T05:01:42.550Z,39.83
2023-04-01T05:07:04.493Z,39.61
2023-04-01T05:12:26.404Z,39.66
2023-04-01T05:17:48.621Z,39.87
2023-04-01T05:23:10.532Z,39.40
2023-04-01T05:28:32.366Z,39.87
2023-04-01T05:33:55.472Z,39.80
2023-04-01T05:39:17.319Z,39.49
2023-04-01T05:44:39.094Z,39.86
2023-04-01T05:50:01.370Z,39.48
2023-04-01T05:55:23.225Z,39.41
2023-04-01T06:00:46.486Z,39.17
2023-04-01T06:06:26.589Z,38.92
2023-04-01T06:12:07.260Z,39.17
2023-04-01T06:18:07.937Z,39.26
2023-04-01T06:24:04.176Z,39.18
2023-04-01T06:29:46.214Z,39.34
2023-04-01T06:35:22.149Z,39.88
2023-04-01T06:41:04.071Z,39.91
2023-04-01T06:46:55.179Z,39.89
2023-04-01T06:52:53.118Z,39.80
2023-04-01T06:58:43.675Z,39.76
2023-04-01T07:04:34.356Z,40.08
2023-04-01T07:10:01.081Z,39.90
2023-04-01T07:15:38.539Z,40.21
2023-04-01T07:21:02.202Z,40.06
2023-04-01T07:26:26.087Z,40.37
2023-04-01T07:31:53.703Z,40.22
2023-04-01T07:37:29.595Z,40.43
2023-04-01T07:43:00.314Z,40.27
2023-04-01T07:48:36.746Z,40.16
2023-04-01T07:54:04.274Z,40.49
2023-04-01T07:59:38.766Z,40.08
2023-04-01T08:05:29.679Z,40.01
2023-04-01T08:10:57.749Z,40.12
2023-04-01T08:16:34.771Z,40.14
2023-04-01T08:22:00.007Z,39.65
2023-04-01T08:27:24.723Z,39.98
2023-04-01T08:32:57.219Z,39.74
2023-04-01T08:38:37.389Z,39.97
2023-04-01T08:44:11.921Z,40.20
2023-04-01T08:49:45.720Z,39.83
2023-04-01T08:55:52.441Z,39.96
2023-04-01T09:01:36.137Z,39.93
2023-04-01T09:07:33.190Z,40.48
2023-04-01T09:13:43.330Z,40.33
2023-04-01T09:19:38.512Z,40.21
2023-04-01T09:25:16.639Z,40.64
2023-04-01T09:31:13.478Z,40.15
2023-04-01T09:36:35.750Z,40.33
2023-04-01T09:42:16.377Z,40.20
2023-04-01T09:47:51.422Z,40.28
2023-04-01T09:53:18.126Z,40.36
2023-04-01T09:59:03.288Z,39.92
2023-04-01T10:04:37.219Z,40.37
2023-04-01T10:10:17.426Z,40.42
2023-04-01T10:16:03.532Z,40.01
2023-04-01T10:21:34.216Z,40.54
2023-04-01T10:27:01.746Z,40.26
2023-04-01T10:32:58.015Z,40.40
2023-04-01T10:38:46.972Z,40.25
2023-04-01T10:44:38.246Z,40.29
2023-04-01T10:50:15.232Z,40.41
2023-04-01T10:55:46.725Z,40.75
2023-04-01T11:01:14.504Z,40.57
2023-04-01T11:07:10.274Z,40.43
2023-04-01T11:12:47.240Z,40.64
2023-04-01T11:18:36.426Z,40.76
2023-04-01T11:24:08.615Z,41.02
2023-04-01T11:29:49.781Z,40.79
2023-04-01T11:35:46.763Z,40.89
2023-04-01T11:41:26.707Z,40.63
2023-04-01T11:47:01.995Z,40.65
2023-04-01T11:52:53.289Z,40.67
2023-04-01T11:58:30.342Z,40.65
2023-04-01T12:04:00.337Z,40.52
2023-04-01T12:09:43.346Z,40.76
2023-04-01T12:15:32.579Z,40.32
2023-04-01T12:21:08.293Z,40.41
2023-04-01T12:26:42.198Z,40.31
2023-04-01T12:32:19.013Z,40.31
2023-04-01T12:37:52.358Z,40.35
2023-04-01T12:43:33.361Z,40.28
2023-04-01T12:49:13.182Z,40.23
2023-04-01T12:54:56.012Z,40.34
2023-04-01T13:00:26.994Z,40.22
2023-04-01T13:06:07.066Z,40.24
2023-04-01T13:11:40.766Z,40.46
2023-04-01T13:17:31.161Z,40.52
2023-04-01T13:23:18.982Z,40.38
2023-04-01T13:29:02.817Z,40.96
2023-04-01T13:34:49.302Z,40.85
2023-04-01T13:40:46.837Z,40.71
2023-04-01T13:46:43.168Z,41.00
2023-04-01T13:52:32.529Z,41.13
2023-04-01T13:58:08.575Z,41.22
2023-04-01T14:03:48.787Z,41.67
2023-04-01T14:09:46.172Z,41.78
2023-04-01T14:15:46.633Z,42.08
2023-04-01T14:21:27.328Z,41.42
2023-04-01T14:27:10.821Z,42.01
2023-04-01T14:32:38.587Z,42.52
2023-04-01T14:38:34.269Z,43.31
2023-04-01T14:44:01.854Z,43.39
2023-04-01T14:49:43.322Z,43.09
2023-04-01T14:55:54.542Z,43.38
2023-04-01T15:01:49.278Z,43.38
2023-04-01T15:07:21.813Z,43.24
2023-04-01T15:13:05.605Z,43.35
2023-04-01T15:18:33.428Z,43.64
2023-04-01T15:23:58.133Z,43.46
2023-04-01T15:29:19.914Z,43.79
2023-04-01T15:35:02.670Z,43.65
2023-04-01T15:40:25.174Z,43.48
2023-04-01T15:46:24.449Z,43.70
2023-04-01T15:52:09.135Z,43.29
2023-04-01T15:57:40.601Z,43.84
2023-04-01T16:03:18.090Z,43.73
2023-04-01T16:09:22.036Z,43.98
2023-04-01T16:15:00.382Z,43.97
2023-04-01T16:20:25.662Z,43.70
2023-04-01T16:25:59.065Z,43.65
2023-04-01T16:31:37.171Z,44.38
2023-04-01T16:37:30.081Z,44.28
2023-04-01T16:43:06.118Z,44.38
2023-04-01T16:48:51.024Z,44.10
2023-04-01T16:54:20.093Z,43.99
2023-04-01T16:59:54.376Z,44.42
2023-04-01T17:05:16.256Z,44.72
2023-04-01T17:11:02.530Z,44.84
2023-04-01T17:16:39.564Z,44.72
2023-04-01T17:22:13.342Z,44.64
2023-04-01T17:27:59.393Z,43.99
2023-04-01T17:33:41.572Z,44.03
2023-04-01T17:39:15.162Z,44.09
2023-04-01T17:44:42.613Z,44.34
2023-04-01T17:50:19.500Z,44.00
2023-04-01T17:56:08.300Z,43.74
2023-04-01T18:01:39.485Z,44.28
2023-04-01T18:07:20.462Z,44.71
2023-04-01T18:13:01.440Z,44.73
2023-04-01T18:18:31.874Z,45.23
2023-04-01T18:24:02.789Z,44.77
2023-04-01T18:29:29.455Z,44.78
2023-04-01T18:35:20.912Z,44.63
2023-04-01T18:41:07.451Z,44.31
2023-04-01T18:46:47.573Z,44.21
2023-04-01T18:52:35.972Z,43.79
2023-04-01T18:58:34.455Z,43.63
2023-04-01T19:04:20.884Z,43.36
2023-04-01T19:09:47.016Z,43.25
2023-04-01T19:15:36.737Z,43.03
2023-04-01T19:21:40.799Z,42.67
2023-04-01T19:27:19.458Z,42.80
2023-04-01T19:32:47.032Z,42.91
2023-04-01T19:38:27.293Z,42.74
2023-04-01T19:44:01.002Z,42.78
2023-04-01T19:49:28.335Z,42.49
2023-04-01T19:55:02.560Z,42.22
2023-04-01T20:00:40.701Z,42.74
2023-04-01T20:06:18.137Z,42.36
2023-04-01T20:12:15.188Z,42.80
2023-04-01T20:17:46.258Z,42.52
2023-04-01T20:23:46.374Z,42.26
2023-04-01T20:29:37.788Z,41.95
2023-04-01T20:35:14.608Z,41.90
2023-04-01T20:40:48.160Z,41.95
2023-04-01T20:46:19.122Z,41.36
2023-04-01T20:52:04.415Z,41.45
2023-04-01T20:57:52.704Z,41.16
2023-04-01T21:03:21.369Z,41.19
2023-04-01T21:09:16.950Z,40.79
2023-04-01T21:15:00.124Z,40.91
2023-04-01T21:20:48.478Z,41.17
2023-04-01T21:26:36.444Z,40.90
2023-04-01T21:32:27.567Z,41.17
2023-04-01T21:38:26.998Z,40.94
2023-04-01T21:44:00.573Z,41.06
2023-04-01T21:49:25.674Z,41.05
2023-04-01T21:55:23.975Z,41.14
2023-04-01T22:01:06.837Z,41.06
2023-04-01T22:06:31.445Z,40.89
2023-04-01T22:12:08.304Z,40.84
2023-04-01T22:17:37.987Z,41.01
2023-04-01T22:23:44.680Z,40.60
2023-04-01T22:29:07.080Z,40.67
2023-04-01T22:34:57.051Z,40.43
2023-04-01T22:40:27.448Z,40.47
2023-04-01T22:46:11.805Z,40.87
2023-04-01T22:51:46.212Z,40.67
2023-04-01T22:57:45.834Z,40.77
2023-04-01T23:03:30.178Z,40.91
2023-04-01T23:09:02.432Z,40.63
2023-04-01T23:14:27.959Z,40.55
2023-04-01T23:19:55.813Z,40.63
2023-04-01T23:25:26.480Z,40.17
2023-04-01T23:30:50.580Z,40.60
2023-04-01T23:36:15.624Z,40.09
2023-04-01T23:41:37.532Z,40.42
2023-04-01T23:47:01.676Z,40.25
2023-04-01T23:52:36.137Z,39.96
2023-04-01T23:58:24.292Z,40.21
